N1496D KOWB-KRSV
Flight info
| Callsign | N1496D |
|---|---|
| Flight time | 0h 39m |
| Altitude | 6000 |
| Route | LAMBS LUKMY |
| Aircraft | GABR/L-VGD/C |
Departure
| Time | 2026-05-06 04:50 |
|---|---|
| Airport | Owensboro Daviess County Airport (KOWB) |
Arrival
| Time | 2026-05-06 05:30 |
|---|---|
| Airport | Robinson Municipal Airport (KRSV) |
| Time | Latitude | Longitude | Altitude | Speed | Heading |
|---|---|---|---|---|---|
| 2026-05-06 04:40 | 37.74704 | -87.16392 | 407 ft | 0 kts | 158° |
| 2026-05-06 04:45 | 37.74702 | -87.16392 | 407 ft | 0 kts | 220° |
| 2026-05-06 04:45 | 37.74703 | -87.16403 | 408 ft | 5 kts | 278° |
| 2026-05-06 04:45 | 37.74705 | -87.16486 | 408 ft | 10 kts | 259° |
| 2026-05-06 04:46 | 37.74636 | -87.16518 | 408 ft | 16 kts | 180° |
| 2026-05-06 04:46 | 37.74499 | -87.16512 | 407 ft | 21 kts | 188° |
| 2026-05-06 04:46 | 37.74350 | -87.16509 | 407 ft | 22 kts | 201° |
| 2026-05-06 04:46 | 37.74207 | -87.16560 | 406 ft | 21 kts | 180° |
| 2026-05-06 04:47 | 37.74058 | -87.16553 | 407 ft | 22 kts | 178° |
| 2026-05-06 04:47 | 37.73904 | -87.16549 | 406 ft | 23 kts | 175° |
| 2026-05-06 04:47 | 37.73745 | -87.16540 | 405 ft | 23 kts | 175° |
| 2026-05-06 04:47 | 37.73583 | -87.16532 | 404 ft | 23 kts | 176° |
| 2026-05-06 04:48 | 37.73416 | -87.16524 | 403 ft | 24 kts | 181° |
| 2026-05-06 04:48 | 37.73243 | -87.16517 | 402 ft | 25 kts | 175° |
| 2026-05-06 04:48 | 37.73066 | -87.16507 | 402 ft | 26 kts | 174° |
| 2026-05-06 04:48 | 37.72888 | -87.16490 | 401 ft | 25 kts | 178° |
| 2026-05-06 04:49 | 37.72721 | -87.16515 | 400 ft | 24 kts | 243° |
| 2026-05-06 04:49 | 37.72727 | -87.16668 | 400 ft | 14 kts | 341° |
| 2026-05-06 04:49 | 37.72795 | -87.16674 | 401 ft | 0 kts | 358° |
| 2026-05-06 04:49 | 37.72852 | -87.16677 | 401 ft | 41 kts | 355° |
| 2026-05-06 04:50 | 37.73340 | -87.16697 | 493 ft | 89 kts | 356° |
| 2026-05-06 04:50 | 37.74008 | -87.16739 | 673 ft | 101 kts | 355° |
| 2026-05-06 04:50 | 37.74731 | -87.16729 | 905 ft | 107 kts | 359° |
| 2026-05-06 04:50 | 37.75495 | -87.16687 | 1089 ft | 117 kts | 356° |
| 2026-05-06 04:51 | 37.76349 | -87.16644 | 1258 ft | 126 kts | 356° |
| 2026-05-06 04:51 | 37.77250 | -87.16603 | 1494 ft | 133 kts | 355° |
| 2026-05-06 04:51 | 37.78168 | -87.16488 | 1765 ft | 134 kts | 356° |
| 2026-05-06 04:51 | 37.79103 | -87.16338 | 2030 ft | 133 kts | 354° |
| 2026-05-06 04:52 | 37.80026 | -87.16271 | 2307 ft | 136 kts | 350° |
| 2026-05-06 04:52 | 37.81000 | -87.16213 | 2571 ft | 144 kts | 351° |
| 2026-05-06 04:52 | 37.82011 | -87.16142 | 2846 ft | 146 kts | 352° |
| 2026-05-06 04:52 | 37.83026 | -87.16070 | 3124 ft | 146 kts | 351° |
| 2026-05-06 04:53 | 37.84033 | -87.15997 | 3389 ft | 144 kts | 351° |
| 2026-05-06 04:53 | 37.85030 | -87.15927 | 3663 ft | 143 kts | 352° |
| 2026-05-06 04:53 | 37.86034 | -87.15859 | 3940 ft | 145 kts | 351° |
| 2026-05-06 04:53 | 37.87042 | -87.15790 | 4213 ft | 146 kts | 350° |
| 2026-05-06 04:54 | 37.88053 | -87.15718 | 4489 ft | 145 kts | 350° |
| 2026-05-06 04:54 | 37.89048 | -87.15646 | 4757 ft | 142 kts | 350° |
| 2026-05-06 04:54 | 37.90026 | -87.15577 | 5025 ft | 139 kts | 349° |
| 2026-05-06 04:54 | 37.90984 | -87.15511 | 5292 ft | 137 kts | 349° |
| 2026-05-06 04:55 | 37.91925 | -87.15445 | 5564 ft | 134 kts | 349° |
| 2026-05-06 04:55 | 37.92833 | -87.15383 | 5838 ft | 131 kts | 349° |
| 2026-05-06 04:55 | 37.93735 | -87.15321 | 6080 ft | 131 kts | 348° |
| 2026-05-06 04:55 | 37.94700 | -87.15265 | 6101 ft | 146 kts | 350° |
| 2026-05-06 04:56 | 37.95736 | -87.15192 | 6089 ft | 151 kts | 352° |
| 2026-05-06 04:56 | 37.96790 | -87.15114 | 6018 ft | 154 kts | 351° |
| 2026-05-06 04:56 | 37.97858 | -87.15053 | 6004 ft | 151 kts | 346° |
| 2026-05-06 04:56 | 37.98816 | -87.15343 | 6002 ft | 136 kts | 323° |
| 2026-05-06 04:57 | 37.99691 | -87.15806 | 6002 ft | 137 kts | 324° |
| 2026-05-06 04:57 | 38.00577 | -87.16255 | 6005 ft | 137 kts | 324° |
| 2026-05-06 04:57 | 38.01464 | -87.16707 | 6003 ft | 137 kts | 324° |
| 2026-05-06 04:57 | 38.02347 | -87.17158 | 6018 ft | 136 kts | 323° |
| 2026-05-06 04:58 | 38.03224 | -87.17608 | 6016 ft | 136 kts | 324° |
| 2026-05-06 04:58 | 38.04099 | -87.18056 | 6020 ft | 136 kts | 324° |
| 2026-05-06 04:58 | 38.04975 | -87.18505 | 6010 ft | 136 kts | 324° |
| 2026-05-06 04:58 | 38.05848 | -87.18952 | 6010 ft | 134 kts | 324° |
| 2026-05-06 04:59 | 38.06710 | -87.19395 | 6009 ft | 134 kts | 324° |
| 2026-05-06 04:59 | 38.07579 | -87.19840 | 6010 ft | 134 kts | 324° |
| 2026-05-06 04:59 | 38.08440 | -87.20283 | 6009 ft | 134 kts | 324° |
| 2026-05-06 04:59 | 38.09305 | -87.20726 | 6011 ft | 133 kts | 323° |
| 2026-05-06 05:00 | 38.10159 | -87.21165 | 6007 ft | 132 kts | 323° |
| 2026-05-06 05:00 | 38.11011 | -87.21603 | 6012 ft | 132 kts | 323° |
| 2026-05-06 05:00 | 38.11861 | -87.22040 | 6008 ft | 131 kts | 323° |
| 2026-05-06 05:00 | 38.12708 | -87.22475 | 6008 ft | 132 kts | 323° |
| 2026-05-06 05:01 | 38.13557 | -87.22913 | 6015 ft | 132 kts | 323° |
| 2026-05-06 05:01 | 38.14405 | -87.23348 | 6009 ft | 133 kts | 323° |
| 2026-05-06 05:01 | 38.15272 | -87.23794 | 6014 ft | 133 kts | 323° |
| 2026-05-06 05:01 | 38.16126 | -87.24233 | 6013 ft | 132 kts | 324° |
| 2026-05-06 05:02 | 38.16967 | -87.24666 | 6006 ft | 132 kts | 323° |
| 2026-05-06 05:02 | 38.17815 | -87.25103 | 6010 ft | 131 kts | 323° |
| 2026-05-06 05:02 | 38.18656 | -87.25536 | 6007 ft | 130 kts | 323° |
| 2026-05-06 05:02 | 38.19493 | -87.25966 | 6011 ft | 129 kts | 323° |
| 2026-05-06 05:03 | 38.20325 | -87.26395 | 6020 ft | 129 kts | 323° |
| 2026-05-06 05:03 | 38.21155 | -87.26823 | 6021 ft | 129 kts | 323° |
| 2026-05-06 05:03 | 38.21998 | -87.27259 | 6025 ft | 131 kts | 323° |
| 2026-05-06 05:03 | 38.22847 | -87.27697 | 6025 ft | 132 kts | 323° |
| 2026-05-06 05:04 | 38.23701 | -87.28136 | 6027 ft | 132 kts | 324° |
| 2026-05-06 05:04 | 38.24551 | -87.28574 | 6030 ft | 131 kts | 324° |
| 2026-05-06 05:04 | 38.25397 | -87.29010 | 6032 ft | 131 kts | 324° |
| 2026-05-06 05:04 | 38.26244 | -87.29448 | 6027 ft | 131 kts | 324° |
| 2026-05-06 05:05 | 38.27087 | -87.29883 | 6028 ft | 130 kts | 323° |
| 2026-05-06 05:05 | 38.27921 | -87.30313 | 6027 ft | 128 kts | 323° |
| 2026-05-06 05:05 | 38.28749 | -87.30740 | 6024 ft | 128 kts | 323° |
| 2026-05-06 05:05 | 38.29575 | -87.31168 | 6029 ft | 128 kts | 323° |
| 2026-05-06 05:06 | 38.30402 | -87.31596 | 6029 ft | 129 kts | 323° |
| 2026-05-06 05:06 | 38.31233 | -87.32025 | 6032 ft | 129 kts | 324° |
| 2026-05-06 05:06 | 38.32064 | -87.32454 | 6028 ft | 129 kts | 324° |
| 2026-05-06 05:06 | 38.32895 | -87.32884 | 6034 ft | 129 kts | 324° |
| 2026-05-06 05:07 | 38.33727 | -87.33314 | 6035 ft | 129 kts | 324° |
| 2026-05-06 05:07 | 38.34557 | -87.33743 | 6032 ft | 128 kts | 324° |
| 2026-05-06 05:07 | 38.35362 | -87.34158 | 6032 ft | 125 kts | 324° |
| 2026-05-06 05:07 | 38.36168 | -87.34577 | 6031 ft | 126 kts | 324° |
| 2026-05-06 05:08 | 38.36980 | -87.34998 | 6035 ft | 126 kts | 324° |
| 2026-05-06 05:08 | 38.37797 | -87.35422 | 6034 ft | 128 kts | 324° |
| 2026-05-06 05:08 | 38.38626 | -87.35852 | 6037 ft | 129 kts | 323° |
| 2026-05-06 05:08 | 38.39454 | -87.36280 | 6036 ft | 129 kts | 324° |
| 2026-05-06 05:09 | 38.40292 | -87.36715 | 6039 ft | 131 kts | 324° |
| 2026-05-06 05:09 | 38.41138 | -87.37154 | 6043 ft | 132 kts | 324° |
| 2026-05-06 05:09 | 38.41712 | -87.37450 | 6042 ft | 131 kts | 324° |
| 2026-05-06 05:09 | 38.42556 | -87.37888 | 6045 ft | 131 kts | 324° |
| 2026-05-06 05:10 | 38.43388 | -87.38319 | 6045 ft | 130 kts | 323° |
| 2026-05-06 05:10 | 38.44227 | -87.38754 | 6049 ft | 130 kts | 325° |
| 2026-05-06 05:10 | 38.45066 | -87.39191 | 6050 ft | 131 kts | 324° |
| 2026-05-06 05:10 | 38.45918 | -87.39634 | 6055 ft | 133 kts | 324° |
| 2026-05-06 05:11 | 38.46772 | -87.40077 | 6057 ft | 132 kts | 326° |
| 2026-05-06 05:11 | 38.47616 | -87.40513 | 6055 ft | 130 kts | 324° |
| 2026-05-06 05:11 | 38.48452 | -87.40946 | 6051 ft | 129 kts | 323° |
| 2026-05-06 05:11 | 38.49282 | -87.41378 | 6058 ft | 128 kts | 323° |
| 2026-05-06 05:12 | 38.50111 | -87.41809 | 6059 ft | 129 kts | 323° |
| 2026-05-06 05:12 | 38.50937 | -87.42239 | 6060 ft | 129 kts | 323° |
| 2026-05-06 05:12 | 38.51775 | -87.42676 | 6059 ft | 130 kts | 323° |
| 2026-05-06 05:12 | 38.52608 | -87.43110 | 6061 ft | 129 kts | 324° |
| 2026-05-06 05:13 | 38.53443 | -87.43544 | 6061 ft | 130 kts | 324° |
| 2026-05-06 05:13 | 38.54282 | -87.43980 | 6061 ft | 130 kts | 324° |
| 2026-05-06 05:13 | 38.55117 | -87.44414 | 6064 ft | 130 kts | 324° |
| 2026-05-06 05:13 | 38.55950 | -87.44847 | 6069 ft | 129 kts | 324° |
| 2026-05-06 05:14 | 38.56780 | -87.45280 | 6069 ft | 129 kts | 323° |
| 2026-05-06 05:14 | 38.57623 | -87.45723 | 5996 ft | 132 kts | 324° |
| 2026-05-06 05:14 | 38.58467 | -87.46160 | 5996 ft | 130 kts | 324° |
| 2026-05-06 05:14 | 38.59302 | -87.46594 | 5996 ft | 129 kts | 323° |
| 2026-05-06 05:15 | 38.60135 | -87.47028 | 6000 ft | 129 kts | 323° |
| 2026-05-06 05:15 | 38.60966 | -87.47462 | 5999 ft | 129 kts | 323° |
| 2026-05-06 05:15 | 38.61801 | -87.47898 | 6001 ft | 130 kts | 323° |
| 2026-05-06 05:15 | 38.62631 | -87.48331 | 6002 ft | 129 kts | 324° |
| 2026-05-06 05:16 | 38.63450 | -87.48758 | 6064 ft | 130 kts | 327° |
| 2026-05-06 05:16 | 38.64321 | -87.49217 | 6000 ft | 135 kts | 332° |
| 2026-05-06 05:16 | 38.65177 | -87.49662 | 6002 ft | 134 kts | 332° |
| 2026-05-06 05:16 | 38.66041 | -87.50113 | 6004 ft | 134 kts | 332° |
| 2026-05-06 05:17 | 38.66905 | -87.50562 | 6005 ft | 134 kts | 332° |
| 2026-05-06 05:17 | 38.67765 | -87.51012 | 6006 ft | 134 kts | 332° |
| 2026-05-06 05:17 | 38.68627 | -87.51463 | 6006 ft | 134 kts | 332° |
| 2026-05-06 05:17 | 38.69492 | -87.51915 | 6006 ft | 134 kts | 332° |
| 2026-05-06 05:18 | 38.70346 | -87.52359 | 5973 ft | 128 kts | 332° |
| 2026-05-06 05:18 | 38.71150 | -87.52774 | 5841 ft | 122 kts | 333° |
| 2026-05-06 05:18 | 38.71927 | -87.53181 | 5708 ft | 120 kts | 333° |
| 2026-05-06 05:18 | 38.72710 | -87.53595 | 5581 ft | 123 kts | 334° |
| 2026-05-06 05:19 | 38.73494 | -87.54006 | 5455 ft | 121 kts | 335° |
| 2026-05-06 05:19 | 38.74288 | -87.54421 | 5340 ft | 126 kts | 336° |
| 2026-05-06 05:19 | 38.75119 | -87.54858 | 5211 ft | 133 kts | 337° |
| 2026-05-06 05:19 | 38.75979 | -87.55308 | 5095 ft | 129 kts | 338° |
| 2026-05-06 05:20 | 38.76774 | -87.55722 | 4980 ft | 121 kts | 339° |
| 2026-05-06 05:20 | 38.77539 | -87.56123 | 4857 ft | 122 kts | 339° |
| 2026-05-06 05:20 | 38.78329 | -87.56539 | 4730 ft | 120 kts | 340° |
| 2026-05-06 05:20 | 38.79087 | -87.56934 | 4604 ft | 116 kts | 340° |
| 2026-05-06 05:21 | 38.79818 | -87.57319 | 4467 ft | 116 kts | 341° |
| 2026-05-06 05:21 | 38.80564 | -87.57712 | 4338 ft | 117 kts | 342° |
| 2026-05-06 05:21 | 38.81320 | -87.58108 | 4204 ft | 117 kts | 341° |
| 2026-05-06 05:21 | 38.82056 | -87.58496 | 4072 ft | 111 kts | 342° |
| 2026-05-06 05:22 | 38.82764 | -87.58867 | 3937 ft | 109 kts | 342° |
| 2026-05-06 05:22 | 38.83463 | -87.59235 | 3808 ft | 106 kts | 343° |
| 2026-05-06 05:22 | 38.84128 | -87.59586 | 3672 ft | 100 kts | 344° |
| 2026-05-06 05:22 | 38.84772 | -87.59923 | 3541 ft | 101 kts | 344° |
| 2026-05-06 05:23 | 38.85436 | -87.60252 | 3415 ft | 103 kts | 350° |
| 2026-05-06 05:23 | 38.86151 | -87.60452 | 3292 ft | 107 kts | 352° |
| 2026-05-06 05:23 | 38.87654 | -87.60896 | 3047 ft | 105 kts | 353° |
| 2026-05-06 05:24 | 38.88327 | -87.61091 | 2912 ft | 96 kts | 353° |
| 2026-05-06 05:24 | 38.88973 | -87.61277 | 2777 ft | 95 kts | 353° |
| 2026-05-06 05:24 | 38.89616 | -87.61464 | 2650 ft | 93 kts | 353° |
| 2026-05-06 05:24 | 38.90245 | -87.61647 | 2518 ft | 93 kts | 354° |
| 2026-05-06 05:25 | 38.90874 | -87.61830 | 2379 ft | 93 kts | 353° |
| 2026-05-06 05:25 | 38.91495 | -87.62011 | 2247 ft | 89 kts | 353° |
| 2026-05-06 05:25 | 38.92101 | -87.62148 | 2110 ft | 88 kts | 356° |
| 2026-05-06 05:25 | 38.92711 | -87.62273 | 1975 ft | 87 kts | 356° |
| 2026-05-06 05:26 | 38.93289 | -87.62387 | 1845 ft | 82 kts | 356° |
| 2026-05-06 05:26 | 38.93845 | -87.62507 | 1705 ft | 79 kts | 356° |
| 2026-05-06 05:26 | 38.94376 | -87.62625 | 1702 ft | 79 kts | 356° |
| 2026-05-06 05:26 | 38.94915 | -87.62751 | 1662 ft | 78 kts | 353° |
| 2026-05-06 05:27 | 38.95453 | -87.62928 | 1518 ft | 80 kts | 354° |
| 2026-05-06 05:27 | 38.95994 | -87.63074 | 1348 ft | 80 kts | 349° |
| 2026-05-06 05:27 | 38.96507 | -87.63281 | 1267 ft | 75 kts | 346° |
| 2026-05-06 05:27 | 38.97040 | -87.63407 | 1255 ft | 78 kts | 354° |
| 2026-05-06 05:28 | 38.97568 | -87.63490 | 1151 ft | 77 kts | 355° |
| 2026-05-06 05:28 | 38.98088 | -87.63577 | 1051 ft | 72 kts | 353° |
| 2026-05-06 05:28 | 38.98562 | -87.63698 | 1003 ft | 69 kts | 348° |
| 2026-05-06 05:28 | 38.99022 | -87.63860 | 965 ft | 68 kts | 348° |
| 2026-05-06 05:29 | 38.99467 | -87.64011 | 886 ft | 65 kts | 347° |
| 2026-05-06 05:29 | 38.99907 | -87.64152 | 843 ft | 65 kts | 356° |
| 2026-05-06 05:29 | 39.00335 | -87.64263 | 722 ft | 61 kts | 350° |
| 2026-05-06 05:29 | 39.00741 | -87.64403 | 608 ft | 58 kts | 354° |
| 2026-05-06 05:30 | 39.01123 | -87.64511 | 487 ft | 53 kts | 350° |
| 2026-05-06 05:30 | 39.01435 | -87.64609 | 458 ft | 39 kts | 351° |
| 2026-05-06 05:30 | 39.01613 | -87.64664 | 458 ft | 18 kts | 341° |
| 2026-05-06 05:30 | 39.01715 | -87.64692 | 457 ft | 13 kts | 341° |
| 2026-05-06 05:31 | 39.01787 | -87.64729 | 457 ft | 11 kts | 318° |
| 2026-05-06 05:31 | 39.01826 | -87.64775 | 457 ft | 8 kts | 66° |
| 2026-05-06 05:31 | 39.01789 | -87.64724 | 457 ft | 10 kts | 166° |
| 2026-05-06 05:31 | 39.01674 | -87.64690 | 457 ft | 19 kts | 167° |
| 2026-05-06 05:32 | 39.01627 | -87.64577 | 457 ft | 15 kts | 92° |
| 2026-05-06 05:32 | 39.01624 | -87.64446 | 457 ft | 14 kts | 94° |
| 2026-05-06 05:32 | 39.01611 | -87.64325 | 457 ft | 14 kts | 117° |
| 2026-05-06 05:32 | 39.01518 | -87.64320 | 457 ft | 16 kts | 182° |
| 2026-05-06 05:33 | 39.01398 | -87.64326 | 457 ft | 19 kts | 181° |
| 2026-05-06 05:33 | 39.01309 | -87.64306 | 456 ft | 0 kts | 154° |